createdAt,value
2022-10-18T00:00:58.799Z,100334.16
2022-10-18T00:03:03.626Z,100335.84
2022-10-18T00:05:09.390Z,100338.48
2022-10-18T00:07:14.118Z,100337.38
2022-10-18T00:09:18.738Z,100335.08
2022-10-18T00:11:23.387Z,100333.02
2022-10-18T00:13:28.217Z,100333.45
2022-10-18T00:15:32.944Z,100330.02
2022-10-18T00:17:38.084Z,100327.00
2022-10-18T00:19:42.833Z,100328.84
2022-10-18T00:21:49.602Z,100326.89
2022-10-18T00:23:54.880Z,100327.61
2022-10-18T00:26:05.400Z,100325.55
2022-10-18T00:28:10.047Z,100321.65
2022-10-18T00:30:14.723Z,100321.61
2022-10-18T00:32:19.417Z,100321.65
2022-10-18T00:34:28.428Z,100319.38
2022-10-18T00:36:34.482Z,100322.28
2022-10-18T00:38:40.152Z,100320.00
2022-10-18T00:40:44.713Z,100319.52
2022-10-18T00:42:49.292Z,100315.88
2022-10-18T00:45:17.323Z,100320.28
2022-10-18T00:47:22.303Z,100316.44
2022-10-18T00:49:30.964Z,100316.77
2022-10-18T00:51:39.890Z,100312.96
2022-10-18T00:53:44.902Z,100313.91
2022-10-18T00:55:49.765Z,100314.89
2022-10-18T01:00:05.103Z,100313.38
2022-10-18T01:02:10.069Z,100312.96
2022-10-18T01:04:15.956Z,100304.07
2022-10-18T01:06:20.880Z,100301.80
2022-10-18T01:08:43.329Z,100302.84
2022-10-18T01:10:55.763Z,100304.63
2022-10-18T01:13:12.575Z,100304.27
2022-10-18T01:15:23.993Z,100303.52
2022-10-18T01:17:33.886Z,100301.71
2022-10-18T01:20:28.854Z,100298.70
2022-10-18T01:22:39.552Z,100294.66
2022-10-18T01:25:17.429Z,100291.31
2022-10-18T01:27:50.317Z,100290.38
2022-10-18T01:30:18.498Z,100285.34
2022-10-18T01:32:27.021Z,100290.66
2022-10-18T01:34:36.140Z,100290.26
2022-10-18T01:36:43.491Z,100289.80
2022-10-18T01:38:54.419Z,100285.67
2022-10-18T01:41:01.453Z,100286.83
2022-10-18T01:45:19.015Z,100290.71
2022-10-18T01:47:30.940Z,100286.75
2022-10-18T01:49:35.724Z,100287.98
2022-10-18T01:51:40.400Z,100286.47
2022-10-18T01:53:45.025Z,100284.80
2022-10-18T01:55:56.101Z,100283.64
2022-10-18T01:58:08.547Z,100279.14
2022-10-18T02:00:16.637Z,100274.85
2022-10-18T02:02:33.324Z,100269.64
2022-10-18T02:04:51.017Z,100267.91
2022-10-18T02:07:03.730Z,100273.82
2022-10-18T02:09:12.278Z,100279.20
2022-10-18T02:11:18.350Z,100280.79
2022-10-18T02:13:25.678Z,100282.31
2022-10-18T02:15:33.791Z,100283.95
2022-10-18T02:17:39.930Z,100285.23
2022-10-18T02:19:48.287Z,100283.70
2022-10-18T02:21:55.074Z,100282.70
2022-10-18T02:24:02.371Z,100284.14
2022-10-18T02:26:07.644Z,100279.69
2022-10-18T02:28:12.666Z,100281.59
2022-10-18T02:30:18.364Z,100277.13
2022-10-18T02:32:32.625Z,100277.88
2022-10-18T02:34:41.359Z,100275.35
2022-10-18T02:36:51.098Z,100276.85
2022-10-18T02:38:59.511Z,100276.06
2022-10-18T02:41:04.270Z,100275.32
2022-10-18T02:43:08.935Z,100280.89
2022-10-18T02:45:14.951Z,100282.80
2022-10-18T02:47:19.678Z,100286.92
2022-10-18T02:49:27.167Z,100288.61
2022-10-18T02:51:32.142Z,100289.69
2022-10-18T02:53:36.821Z,100290.85
2022-10-18T02:55:42.522Z,100289.69
2022-10-18T02:57:47.197Z,100291.66
2022-10-18T02:59:52.250Z,100291.17
2022-10-18T03:01:57.031Z,100298.06
2022-10-18T03:04:01.751Z,100298.17
2022-10-18T03:06:06.689Z,100292.92
2022-10-18T03:08:11.408Z,100297.45
2022-10-18T03:10:16.293Z,100294.34
2022-10-18T03:12:20.911Z,100292.73
2022-10-18T03:14:25.522Z,100292.27
2022-10-18T03:16:30.205Z,100296.02
2022-10-18T03:18:34.924Z,100297.40
2022-10-18T03:20:39.775Z,100294.74
2022-10-18T03:22:44.417Z,100297.50
2022-10-18T03:24:49.126Z,100300.29
2022-10-18T03:26:53.767Z,100297.33
2022-10-18T03:28:58.537Z,100297.63
2022-10-18T03:31:04.300Z,100302.89
2022-10-18T03:33:09.688Z,100302.61
2022-10-18T03:35:17.241Z,100306.50
2022-10-18T03:37:21.861Z,100305.28
2022-10-18T03:39:26.574Z,100309.47
2022-10-18T03:41:31.287Z,100312.71
2022-10-18T03:43:35.951Z,100320.98
2022-10-18T03:45:40.998Z,100326.30
2022-10-18T03:47:46.061Z,100327.98
2022-10-18T03:49:53.235Z,100327.54
2022-10-18T03:52:00.942Z,100322.52
2022-10-18T03:54:05.710Z,100322.25
2022-10-18T03:56:10.333Z,100324.01
2022-10-18T03:58:15.034Z,100327.56
2022-10-18T04:00:22.966Z,100329.67
2022-10-18T04:02:28.135Z,100328.83
2022-10-18T04:04:32.745Z,100330.66
2022-10-18T04:06:37.429Z,100327.86
2022-10-18T04:08:45.274Z,100327.17
2022-10-18T04:10:50.024Z,100325.30
2022-10-18T04:12:54.681Z,100325.73
2022-10-18T04:14:59.351Z,100322.00
2022-10-18T04:17:04.171Z,100317.14
2022-10-18T04:19:08.809Z,100320.38
2022-10-18T04:21:13.396Z,100315.59
2022-10-18T04:23:18.070Z,100318.87
2022-10-18T04:25:22.718Z,100312.30
2022-10-18T04:27:28.083Z,100313.84
2022-10-18T04:29:32.853Z,100316.93
2022-10-18T04:31:37.509Z,100317.77
2022-10-18T04:33:42.231Z,100319.29
2022-10-18T04:35:47.196Z,100316.58
2022-10-18T04:37:51.929Z,100315.13
2022-10-18T04:39:56.555Z,100318.25
2022-10-18T04:42:01.261Z,100318.48
2022-10-18T04:44:06.107Z,100319.13
2022-10-18T04:46:10.864Z,100323.31
2022-10-18T04:48:15.565Z,100327.48
2022-10-18T04:50:20.362Z,100326.51
2022-10-18T04:52:25.100Z,100326.42
2022-10-18T04:54:29.790Z,100329.64
2022-10-18T04:56:34.715Z,100333.12
2022-10-18T04:58:39.441Z,100329.91
2022-10-18T05:00:44.339Z,100327.96
2022-10-18T05:02:49.012Z,100325.73
2022-10-18T05:04:53.678Z,100326.73
2022-10-18T05:06:59.620Z,100327.30
2022-10-18T05:09:04.289Z,100329.42
2022-10-18T05:13:14.885Z,100328.83
2022-10-18T05:15:19.563Z,100324.36
2022-10-18T05:17:24.285Z,100316.77
2022-10-18T05:19:29.001Z,100315.25
2022-10-18T05:21:33.759Z,100319.75
2022-10-18T05:23:38.438Z,100319.79
2022-10-18T05:25:44.719Z,100323.66
2022-10-18T05:27:49.350Z,100322.43
2022-10-18T05:29:58.940Z,100326.08
2022-10-18T05:32:06.426Z,100331.20
2022-10-18T05:34:11.079Z,100328.98
2022-10-18T05:36:15.959Z,100331.58
2022-10-18T05:38:20.601Z,100334.19
2022-10-18T05:40:25.240Z,100336.21
2022-10-18T05:42:30.234Z,100336.91
2022-10-18T05:44:35.138Z,100335.14
2022-10-18T05:46:39.841Z,100333.13
2022-10-18T05:48:49.059Z,100338.02
2022-10-18T05:50:54.093Z,100340.36
2022-10-18T05:53:07.006Z,100340.91
2022-10-18T05:55:17.165Z,100341.30
2022-10-18T05:57:21.885Z,100339.71
2022-10-18T05:59:26.764Z,100335.59
2022-10-18T06:01:31.404Z,100334.88
2022-10-18T06:03:36.154Z,100335.41
2022-10-18T06:05:40.854Z,100330.06
2022-10-18T06:07:45.527Z,100331.27
2022-10-18T06:09:50.229Z,100324.09
2022-10-18T06:11:54.902Z,100326.36
2022-10-18T06:13:59.582Z,100327.66
2022-10-18T06:16:04.556Z,100333.75
2022-10-18T06:18:09.208Z,100333.77
2022-10-18T06:20:13.863Z,100336.48
2022-10-18T06:22:18.489Z,100335.14
2022-10-18T06:24:23.339Z,100339.41
2022-10-18T06:26:28.821Z,100343.02
2022-10-18T06:28:36.401Z,100346.73
2022-10-18T06:30:41.059Z,100346.80
2022-10-18T06:32:45.696Z,100345.55
2022-10-18T06:34:50.382Z,100345.94
2022-10-18T06:36:56.479Z,100347.21
2022-10-18T06:39:03.321Z,100349.23
2022-10-18T06:41:08.839Z,100347.20
2022-10-18T06:43:20.905Z,100353.23
2022-10-18T06:45:26.120Z,100354.98
2022-10-18T06:47:30.837Z,100358.28
2022-10-18T06:49:35.503Z,100359.73
2022-10-18T06:51:40.663Z,100363.32
2022-10-18T06:53:59.125Z,100358.83
2022-10-18T06:56:11.360Z,100366.32
2022-10-18T06:58:16.063Z,100359.51
2022-10-18T07:00:20.737Z,100363.11
2022-10-18T07:02:25.304Z,100361.49
2022-10-18T07:04:30.997Z,100357.17
2022-10-18T07:06:35.682Z,100358.67
2022-10-18T07:08:41.040Z,100367.53
2022-10-18T07:10:52.440Z,100368.66
2022-10-18T07:13:19.688Z,100370.27
2022-10-18T07:15:22.012Z,100369.09
2022-10-18T07:17:26.861Z,100367.15
2022-10-18T07:19:31.580Z,100371.21
2022-10-18T07:21:36.439Z,100372.49
2022-10-18T07:23:42.355Z,100369.41
2022-10-18T07:25:47.307Z,100367.52
2022-10-18T07:27:52.024Z,100365.63
2022-10-18T07:29:56.784Z,100366.52
2022-10-18T07:32:01.597Z,100363.42
2022-10-18T07:34:07.388Z,100360.38
2022-10-18T07:36:13.066Z,100364.79
2022-10-18T07:38:17.868Z,100360.28
2022-10-18T07:40:22.604Z,100361.70
2022-10-18T07:42:27.321Z,100361.14
2022-10-18T07:44:31.991Z,100360.80
2022-10-18T07:46:36.705Z,100362.85
2022-10-18T07:48:41.597Z,100364.05
2022-10-18T07:50:49.401Z,100361.79
2022-10-18T07:52:54.062Z,100360.84
2022-10-18T07:55:01.141Z,100359.44
2022-10-18T07:57:06.800Z,100356.77
2022-10-18T07:59:11.933Z,100357.24
2022-10-18T08:01:17.573Z,100354.58
2022-10-18T08:03:22.310Z,100357.22
2022-10-18T08:05:28.110Z,100356.05
2022-10-18T08:07:32.977Z,100351.34
2022-10-18T08:09:38.712Z,100354.51
2022-10-18T08:11:43.336Z,100353.12
2022-10-18T08:13:48.450Z,100348.52
2022-10-18T08:15:58.866Z,100348.17
2022-10-18T08:18:03.602Z,100349.23
2022-10-18T08:20:12.306Z,100350.23
2022-10-18T08:22:31.278Z,100344.98
2022-10-18T08:24:36.023Z,100345.02
2022-10-18T08:26:40.709Z,100343.63
2022-10-18T08:28:53.731Z,100343.55
2022-10-18T08:31:05.868Z,100341.52
2022-10-18T08:33:11.760Z,100341.19
2022-10-18T08:35:16.657Z,100344.23
2022-10-18T08:37:21.367Z,100347.87
2022-10-18T08:39:26.132Z,100344.77
2022-10-18T08:41:56.481Z,100340.42
2022-10-18T08:44:11.963Z,100338.94
2022-10-18T08:46:16.713Z,100341.58
2022-10-18T08:48:29.114Z,100337.13
2022-10-18T08:50:36.512Z,100338.10
2022-10-18T08:52:48.959Z,100335.90
2022-10-18T08:55:00.555Z,100333.96
2022-10-18T08:57:13.517Z,100326.77
2022-10-18T08:59:21.946Z,100324.42
2022-10-18T09:01:38.657Z,100323.79
2022-10-18T09:04:00.105Z,100321.58
2022-10-18T09:06:18.698Z,100318.33
2022-10-18T09:08:50.639Z,100317.16
2022-10-18T09:11:07.100Z,100315.05
2022-10-18T09:13:32.321Z,100312.73
2022-10-18T09:15:45.670Z,100310.27
2022-10-18T09:18:01.820Z,100309.54
2022-10-18T09:20:20.695Z,100312.44
2022-10-18T09:22:33.083Z,100312.44
2022-10-18T09:24:44.611Z,100311.66
2022-10-18T09:26:54.707Z,100310.18
2022-10-18T09:29:13.362Z,100309.43
2022-10-18T09:31:22.856Z,100308.66
2022-10-18T09:33:39.251Z,100305.21
2022-10-18T09:35:49.246Z,100303.70
2022-10-18T09:38:00.991Z,100302.56
2022-10-18T09:40:18.760Z,100300.38
2022-10-18T09:42:27.575Z,100303.39
2022-10-18T09:44:36.890Z,100298.34
2022-10-18T09:46:46.297Z,100295.59
2022-10-18T09:48:57.012Z,100288.12
2022-10-18T09:51:08.072Z,100285.89
2022-10-18T09:53:20.166Z,100283.75
2022-10-18T09:55:32.095Z,100282.50
2022-10-18T09:57:40.508Z,100279.52
2022-10-18T09:59:48.234Z,100282.89
2022-10-18T10:01:53.018Z,100279.91
2022-10-18T10:03:57.855Z,100279.49
2022-10-18T10:06:23.337Z,100271.60
2022-10-18T10:08:34.071Z,100268.08
2022-10-18T10:10:45.447Z,100269.56
2022-10-18T10:13:02.333Z,100268.45
2022-10-18T10:15:16.372Z,100266.70
2022-10-18T10:17:26.096Z,100270.83
2022-10-18T10:19:36.395Z,100272.34
2022-10-18T10:21:42.438Z,100269.10
2022-10-18T10:23:51.183Z,100265.81
2022-10-18T10:25:57.190Z,100266.61
2022-10-18T10:28:11.758Z,100258.95
2022-10-18T10:30:28.242Z,100261.69
2022-10-18T10:32:48.429Z,100261.23
2022-10-18T10:34:53.244Z,100266.48
2022-10-18T10:36:58.006Z,100265.04
2022-10-18T10:39:11.027Z,100261.79
2022-10-18T10:41:24.111Z,100264.85
2022-10-18T10:43:38.237Z,100256.82
2022-10-18T10:45:58.227Z,100248.94
2022-10-18T10:48:14.852Z,100244.39
2022-10-18T10:50:25.539Z,100246.74
2022-10-18T10:52:30.760Z,100243.34
2022-10-18T10:54:38.125Z,100243.55
2022-10-18T10:56:54.479Z,100239.68
2022-10-18T10:59:08.260Z,100241.60
2022-10-18T11:01:28.758Z,100237.81
2022-10-18T11:03:35.015Z,100235.61
2022-10-18T11:05:47.711Z,100231.55
2022-10-18T11:07:55.282Z,100228.03
2022-10-18T11:10:05.929Z,100225.17
2022-10-18T11:12:23.038Z,100218.06
2022-10-18T11:14:30.303Z,100214.91
2022-10-18T11:16:43.595Z,100210.35
2022-10-18T11:18:51.159Z,100207.36
2022-10-18T11:21:02.253Z,100203.60
2022-10-18T11:23:11.352Z,100204.95
2022-10-18T11:25:17.466Z,100203.75
2022-10-18T11:27:28.148Z,100205.86
2022-10-18T11:29:49.201Z,100203.00
2022-10-18T11:32:00.623Z,100197.79
2022-10-18T11:34:24.176Z,100192.11
2022-10-18T11:36:38.595Z,100192.50
2022-10-18T11:38:51.273Z,100192.05
2022-10-18T11:41:14.728Z,100190.96
2022-10-18T11:43:30.226Z,100186.66
2022-10-18T11:45:46.459Z,100183.41
2022-10-18T11:47:57.902Z,100179.83
2022-10-18T11:50:12.610Z,100178.80
2022-10-18T11:52:24.289Z,100181.73
2022-10-18T11:55:01.252Z,100180.05
2022-10-18T11:57:16.147Z,100179.45
2022-10-18T11:59:32.136Z,100178.48
2022-10-18T12:01:43.437Z,100178.25
2022-10-18T12:03:59.397Z,100177.88
2022-10-18T12:06:11.974Z,100179.52
2022-10-18T12:08:21.359Z,100179.29
2022-10-18T12:10:44.097Z,100168.84
2022-10-18T12:12:56.638Z,100167.06
2022-10-18T12:15:05.518Z,100163.17
2022-10-18T12:17:41.766Z,100161.60
2022-10-18T12:19:45.061Z,100156.40
2022-10-18T12:21:49.755Z,100155.35
2022-10-18T12:23:58.402Z,100151.61
2022-10-18T12:26:05.662Z,100145.20
2022-10-18T12:28:18.979Z,100140.58
2022-10-18T12:30:32.280Z,100137.99
2022-10-18T12:32:39.656Z,100133.40
2022-10-18T12:34:48.934Z,100135.23
2022-10-18T12:37:16.320Z,100130.20
2022-10-18T12:39:33.469Z,100127.78
2022-10-18T12:41:53.693Z,100129.21
2022-10-18T12:44:03.128Z,100132.48
2022-10-18T12:46:13.279Z,100130.45
2022-10-18T12:48:39.218Z,100122.60
2022-10-18T12:50:45.263Z,100115.20
2022-10-18T12:53:05.272Z,100112.32
2022-10-18T12:55:35.206Z,100109.02
2022-10-18T12:58:03.351Z,100107.16
2022-10-18T13:00:45.758Z,100103.87
2022-10-18T13:03:37.630Z,100099.12
2022-10-18T13:05:58.423Z,100096.75
2022-10-18T13:08:39.403Z,100094.98
2022-10-18T13:10:45.877Z,100092.83
2022-10-18T13:13:18.017Z,100092.11
2022-10-18T13:15:42.307Z,100090.42
2022-10-18T13:17:52.660Z,100087.08
2022-10-18T13:20:25.699Z,100087.08
2022-10-18T13:22:48.570Z,100086.67
2022-10-18T13:25:03.909Z,100080.30
2022-10-18T13:27:41.585Z,100079.33
2022-10-18T13:30:12.765Z,100074.39
2022-10-18T13:32:27.983Z,100068.07
2022-10-18T13:34:35.955Z,100064.30
2022-10-18T13:36:43.114Z,100061.06
2022-10-18T13:39:02.740Z,100060.86
2022-10-18T13:41:09.645Z,100056.69
2022-10-18T13:43:46.903Z,100052.79
2022-10-18T13:45:57.603Z,100050.96
2022-10-18T13:48:32.610Z,100048.36
2022-10-18T13:50:44.387Z,100048.69
2022-10-18T13:53:04.697Z,100046.52
2022-10-18T13:55:33.686Z,100046.92
2022-10-18T13:57:48.768Z,100045.71
2022-10-18T14:00:16.335Z,100042.46
2022-10-18T14:02:59.406Z,100043.64
2022-10-18T14:05:25.799Z,100038.20
2022-10-18T14:07:31.919Z,100036.22
2022-10-18T14:09:47.212Z,100035.65
2022-10-18T14:11:57.745Z,100041.17
2022-10-18T14:14:08.527Z,100041.39
2022-10-18T14:16:27.461Z,100038.37
2022-10-18T14:18:34.824Z,100038.63
2022-10-18T14:20:55.272Z,100035.29
2022-10-18T14:23:12.660Z,100031.36
2022-10-18T14:25:26.620Z,100026.17
2022-10-18T14:27:32.889Z,100027.66
2022-10-18T14:29:38.506Z,100028.96
2022-10-18T14:31:51.749Z,100030.68
2022-10-18T14:33:58.840Z,100029.57
2022-10-18T14:36:15.346Z,100027.73
2022-10-18T14:38:20.582Z,100023.98
2022-10-18T14:40:40.384Z,100027.46
2022-10-18T14:42:49.616Z,100023.20
2022-10-18T14:44:56.458Z,100025.94
2022-10-18T14:47:02.967Z,100026.52
2022-10-18T14:49:07.658Z,100018.82
2022-10-18T14:51:12.893Z,100017.67
2022-10-18T14:53:20.534Z,100014.38
2022-10-18T14:55:27.210Z,100014.92
2022-10-18T14:57:33.884Z,100011.73
2022-10-18T14:59:44.985Z,100014.31
2022-10-18T15:01:56.716Z,100016.86
2022-10-18T15:04:06.781Z,100015.61
2022-10-18T15:06:18.058Z,100013.52
2022-10-18T15:08:24.851Z,100013.89
2022-10-18T15:10:32.865Z,100010.27
2022-10-18T15:13:04.330Z,100011.33
2022-10-18T15:15:05.943Z,100009.69
2022-10-18T15:17:18.405Z,100014.69
2022-10-18T15:19:39.670Z,100016.02
2022-10-18T15:22:13.662Z,100014.73
2022-10-18T15:24:30.890Z,100012.79
2022-10-18T15:26:35.718Z,100005.91
2022-10-18T15:28:43.006Z,100008.43
2022-10-18T15:30:47.766Z,100002.84
2022-10-18T15:32:55.748Z,100001.67
2022-10-18T15:35:13.908Z,100000.89
2022-10-18T15:37:35.941Z,100001.86
2022-10-18T15:39:40.855Z,99997.72
2022-10-18T15:41:50.972Z,100000.81
2022-10-18T15:44:11.573Z,99998.30
2022-10-18T15:46:32.107Z,100004.66
2022-10-18T15:48:38.443Z,100009.77
2022-10-18T15:50:45.407Z,100006.79
2022-10-18T15:52:50.108Z,100010.52
2022-10-18T15:54:54.759Z,100012.41
2022-10-18T15:57:06.822Z,100008.98
2022-10-18T15:59:24.591Z,100009.50
2022-10-18T16:01:35.568Z,100003.54
2022-10-18T16:03:40.537Z,100000.48
2022-10-18T16:05:45.466Z,100002.69
2022-10-18T16:07:54.364Z,100002.71
2022-10-18T16:09:59.116Z,100007.55
2022-10-18T16:12:03.989Z,100007.84
2022-10-18T16:14:08.635Z,100005.23
2022-10-18T16:16:16.996Z,100007.02
2022-10-18T16:18:22.231Z,100006.33
2022-10-18T16:20:26.856Z,100010.77
2022-10-18T16:22:34.721Z,100011.19
2022-10-18T16:24:41.602Z,100014.20
2022-10-18T16:26:46.689Z,100011.34
2022-10-18T16:28:51.914Z,100012.33
2022-10-18T16:30:59.342Z,100010.30
2022-10-18T16:33:06.878Z,100011.20
2022-10-18T16:35:12.047Z,100007.66
2022-10-18T16:37:16.726Z,100008.33
2022-10-18T16:39:22.362Z,100005.84
2022-10-18T16:41:27.330Z,100001.07
2022-10-18T16:43:32.479Z,100002.11
2022-10-18T16:45:37.695Z,100001.50
2022-10-18T16:47:42.553Z,99999.39
2022-10-18T16:49:47.719Z,99997.42
2022-10-18T16:51:53.069Z,99996.77
2022-10-18T16:53:58.199Z,99999.02
2022-10-18T16:56:04.453Z,99999.01
2022-10-18T16:58:14.141Z,100003.06
2022-10-18T17:00:21.912Z,100002.56
2022-10-18T17:02:27.035Z,100003.77
2022-10-18T17:04:31.976Z,100007.28
2022-10-18T17:06:37.120Z,100005.19
2022-10-18T17:08:42.930Z,100008.38
2022-10-18T17:10:49.092Z,100006.16
2022-10-18T17:12:54.185Z,100002.75
2022-10-18T17:14:59.407Z,100001.16
2022-10-18T17:17:04.619Z,99999.09
2022-10-18T17:19:12.042Z,99999.95
2022-10-18T17:21:17.017Z,100000.54
2022-10-18T17:23:22.403Z,100006.10
2022-10-18T17:25:28.471Z,100006.54
2022-10-18T17:27:35.366Z,100012.33
2022-10-18T17:29:41.668Z,100013.14
2022-10-18T17:31:49.255Z,100007.73
2022-10-18T17:33:55.411Z,100007.98
2022-10-18T17:36:02.267Z,100007.59
2022-10-18T17:38:11.292Z,100002.65
2022-10-18T17:40:17.559Z,100005.27
2022-10-18T17:42:23.925Z,100008.45
2022-10-18T17:44:30.171Z,100009.99
2022-10-18T17:46:36.020Z,100010.73
2022-10-18T17:48:43.428Z,100010.19
2022-10-18T17:50:52.544Z,100009.70
2022-10-18T17:52:58.348Z,100010.39
2022-10-18T17:55:06.284Z,100010.94
2022-10-18T17:57:11.766Z,100010.78
2022-10-18T17:59:19.745Z,100012.52
2022-10-18T18:01:26.015Z,100009.36
2022-10-18T18:03:31.345Z,100010.13
2022-10-18T18:05:37.323Z,100008.64
2022-10-18T18:07:48.942Z,100004.05
2022-10-18T18:09:55.547Z,100005.81
2022-10-18T18:12:01.629Z,100004.86
2022-10-18T18:14:08.482Z,100003.08
2022-10-18T18:16:16.364Z,100003.08
2022-10-18T18:18:22.888Z,99994.25
2022-10-18T18:20:31.368Z,99991.65
2022-10-18T18:22:43.382Z,99990.33
2022-10-18T18:24:49.955Z,99986.33
2022-10-18T18:26:58.650Z,99990.83
2022-10-18T18:29:05.477Z,99987.17
2022-10-18T18:31:16.793Z,99983.83
2022-10-18T18:33:25.035Z,99986.09
2022-10-18T18:35:31.386Z,99993.25
2022-10-18T18:37:37.999Z,99991.61
2022-10-18T18:39:44.698Z,99988.45
2022-10-18T18:41:52.296Z,99984.23
2022-10-18T18:44:01.857Z,99977.30
2022-10-18T18:46:13.209Z,99978.00
2022-10-18T18:48:20.027Z,99978.90
2022-10-18T18:50:29.995Z,99984.02
2022-10-18T18:52:36.634Z,99980.80
2022-10-18T18:54:44.458Z,99982.04
2022-10-18T18:56:50.792Z,99983.48
2022-10-18T18:58:57.363Z,99987.52
2022-10-18T19:01:09.003Z,99992.23
2022-10-18T19:03:15.496Z,99995.65
2022-10-18T19:07:30.754Z,99990.23
2022-10-18T19:09:38.110Z,99989.30
2022-10-18T19:11:44.104Z,99988.13
2022-10-18T19:13:52.237Z,99987.98
2022-10-18T19:16:21.790Z,99992.20
2022-10-18T19:18:27.986Z,99983.63
2022-10-18T19:20:34.703Z,99980.85
2022-10-18T19:22:40.899Z,99979.17
2022-10-18T19:24:47.128Z,99979.95
2022-10-18T19:26:54.954Z,99979.98
2022-10-18T19:29:08.633Z,99979.66
2022-10-18T19:31:14.898Z,99975.91
2022-10-18T19:33:23.757Z,99977.87
2022-10-18T19:35:39.554Z,99975.88
2022-10-18T19:37:46.025Z,99973.45
2022-10-18T19:39:55.747Z,99977.11
2022-10-18T19:42:05.074Z,99981.05
2022-10-18T19:44:12.047Z,99981.38
2022-10-18T19:46:18.235Z,99986.48
2022-10-18T19:48:24.595Z,99988.17
2022-10-18T19:50:30.822Z,99995.05
2022-10-18T19:52:37.284Z,99992.65
2022-10-18T19:54:45.421Z,99991.20
2022-10-18T19:56:51.083Z,99989.96
2022-10-18T19:58:59.063Z,99991.11
2022-10-18T20:01:06.137Z,99990.25
2022-10-18T20:03:12.387Z,99996.52
2022-10-18T20:05:17.927Z,100000.15
2022-10-18T20:07:24.544Z,100001.84
2022-10-18T20:09:31.219Z,100003.16
2022-10-18T20:11:36.310Z,100007.14
2022-10-18T20:13:41.682Z,100002.27
2022-10-18T20:15:48.256Z,100001.95
2022-10-18T20:17:53.699Z,99999.80
2022-10-18T20:19:58.829Z,99995.08
2022-10-18T20:22:03.974Z,99992.73
2022-10-18T20:24:11.008Z,99991.16
2022-10-18T20:26:18.333Z,99994.98
2022-10-18T20:28:25.397Z,99993.15
2022-10-18T20:30:30.108Z,99997.72
2022-10-18T20:32:34.787Z,99995.36
2022-10-18T20:34:39.520Z,100002.00
2022-10-18T20:36:44.317Z,99995.60
2022-10-18T20:38:49.748Z,99995.00
2022-10-18T20:40:54.545Z,99997.95
2022-10-18T20:43:03.611Z,99988.83
2022-10-18T20:45:10.201Z,99997.44
2022-10-18T20:47:14.925Z,100001.65
2022-10-18T20:49:19.569Z,100008.27
2022-10-18T20:51:24.613Z,100001.70
2022-10-18T20:53:29.572Z,100012.63
2022-10-18T20:55:34.223Z,100009.92
2022-10-18T20:57:39.246Z,100012.35
2022-10-18T20:59:44.067Z,100009.07
2022-10-18T21:01:48.891Z,100009.73
2022-10-18T21:03:55.702Z,100011.45
2022-10-18T21:06:00.393Z,100017.29
2022-10-18T21:08:05.159Z,100019.91
2022-10-18T21:10:10.611Z,100014.63
2022-10-18T21:12:15.222Z,100014.61
2022-10-18T21:14:22.341Z,100015.93
2022-10-18T21:16:27.259Z,100011.89
2022-10-18T21:18:33.429Z,100011.85
2022-10-18T21:20:38.036Z,100012.13
2022-10-18T21:22:42.706Z,100020.83
2022-10-18T21:24:47.336Z,100015.66
2022-10-18T21:26:52.131Z,100014.02
2022-10-18T21:28:58.435Z,100020.37
2022-10-18T21:31:13.985Z,100013.29
2022-10-18T21:33:18.633Z,100020.40
2022-10-18T21:35:26.471Z,100023.11
2022-10-18T21:37:31.317Z,100023.38
2022-10-18T21:39:36.064Z,100021.73
2022-10-18T21:41:41.601Z,100020.13
2022-10-18T21:43:47.988Z,100008.91
2022-10-18T21:45:58.516Z,100010.51
2022-10-18T21:48:04.321Z,100008.26
2022-10-18T21:50:10.091Z,100011.66
2022-10-18T21:52:14.731Z,100010.78
2022-10-18T21:54:19.461Z,100016.21
2022-10-18T21:56:26.015Z,100011.77
2022-10-18T21:58:30.672Z,100004.70
2022-10-18T22:00:35.451Z,100002.67
2022-10-18T22:02:40.077Z,100006.35
2022-10-18T22:04:44.834Z,99993.90
2022-10-18T22:06:49.838Z,99990.63
2022-10-18T22:08:56.211Z,99995.67
2022-10-18T22:11:01.665Z,99990.70
2022-10-18T22:13:06.345Z,99994.99
2022-10-18T22:15:11.904Z,99999.08
2022-10-18T22:17:16.590Z,100002.67
2022-10-18T22:19:21.284Z,100001.20
2022-10-18T22:21:26.176Z,99995.80
2022-10-18T22:23:35.067Z,99993.34
2022-10-18T22:25:39.657Z,99999.33
2022-10-18T22:27:44.291Z,99998.54
2022-10-18T22:29:48.906Z,99997.23
2022-10-18T22:31:54.761Z,100000.33
2022-10-18T22:34:02.155Z,100000.04
2022-10-18T22:36:07.158Z,100000.48
2022-10-18T22:38:11.861Z,100007.56
2022-10-18T22:40:16.625Z,100005.39
2022-10-18T22:42:21.375Z,100007.17
2022-10-18T22:44:26.585Z,100017.53
2022-10-18T22:46:31.603Z,100018.77
2022-10-18T22:48:36.432Z,100018.40
2022-10-18T22:50:41.114Z,100023.27
2022-10-18T22:52:45.827Z,100026.89
2022-10-18T22:54:50.488Z,100036.63
2022-10-18T22:56:55.157Z,100034.23
2022-10-18T22:58:59.849Z,100031.59
2022-10-18T23:01:06.690Z,100034.69
2022-10-18T23:03:11.757Z,100040.31
2022-10-18T23:05:16.691Z,100039.60
2022-10-18T23:07:21.294Z,100038.45
2022-10-18T23:09:26.071Z,100043.66
2022-10-18T23:11:30.994Z,100040.35
2022-10-18T23:13:38.777Z,100041.02
2022-10-18T23:15:44.419Z,100046.41
2022-10-18T23:17:48.992Z,100045.23
2022-10-18T23:19:53.658Z,100051.14
2022-10-18T23:21:58.254Z,100048.23
2022-10-18T23:24:02.870Z,100052.23
2022-10-18T23:26:09.985Z,100056.05
2022-10-18T23:28:14.614Z,100055.45
2022-10-18T23:30:19.350Z,100053.94
2022-10-18T23:32:23.977Z,100056.84
2022-10-18T23:34:28.825Z,100058.73
2022-10-18T23:36:34.495Z,100056.17
2022-10-18T23:38:40.438Z,100056.57
2022-10-18T23:40:45.084Z,100060.83
2022-10-18T23:42:49.729Z,100064.94
2022-10-18T23:44:54.330Z,100065.96
2022-10-18T23:46:59.101Z,100065.06
2022-10-18T23:49:03.715Z,100064.19
2022-10-18T23:51:08.948Z,100064.83
2022-10-18T23:53:13.581Z,100066.92
2022-10-18T23:55:18.516Z,100066.68
2022-10-18T23:57:23.237Z,100068.71
2022-10-18T23:59:28.195Z,100076.04
